Seaward — WDC8056 — position and weather

sailwx.info

Track history (hours):
 
Tides and Currents Weather Stations Pressure Air Temp Water Temp Dewpoint Dewpoint Depression Visibility Wind Speed Wind Dir Waves Ship Positions

Seaward

Owner: Call of the Sea, sausalito, CA. More information available from US FCC via Universal Licensing System and Coast Guard Vessel Documentation Center.

Last reported at 2017-Dec-14 00:30 UTC. Time now 2017-Dec-16 13:14 UTC.
Position N 37°52' W 122°30'.

Length 21 m; draft 3 m.

Type: Sailing vessel. MMSI: 2712376.

Date/timePositionNaut miles runAvg speedWind from/ knotsBaromVisibWave heightAir tempDewpointWater temp
2017-Dec-14 00:30N 37°52' W 122°30'0 0.6
2017-Dec-14 00:00N 37°52' W 122°29'2 4.8
2017-Dec-13 23:30N 37°51' W 122°26'2 4.3
2017-Dec-13 23:00N 37°49' W 122°27'  
2017-Dec-10 04:16N 37°52' W 122°30'0 0.0
2017-Dec-10 04:01N 37°52' W 122°30'1 2.3
2017-Dec-10 03:31N 37°51' W 122°28'0 0.7
2017-Dec-10 03:01N 37°51' W 122°29'1 1.8
2017-Dec-10 02:31N 37°52' W 122°29'1 1.5
2017-Dec-10 02:01N 37°52' W 122°30'0 0.5
2017-Dec-10 01:31N 37°52' W 122°30'0 0.0
2017-Dec-10 01:01N 37°52' W 122°30'0 0.0
2017-Dec-10 00:30N 37°52' W 122°30'  
Track history (hours):
 
Tides and Currents Weather Stations Pressure Air Temp Water Temp Dewpoint Dewpoint Depression Visibility Wind Speed Wind Dir Waves Ship Positions

Seaward

Owner: Call of the Sea, sausalito, CA. More information available from US FCC via Universal Licensing System and Coast Guard Vessel Documentation Center.

Last reported at 2017-Dec-14 00:30 UTC. Time now 2017-Dec-16 13:14 UTC.
Position N 37°52' W 122°30'.

Length 21 m; draft 3 m.

Type: Sailing vessel. MMSI: 2712376.

Date/timePositionNaut miles runAvg speedWind from/ knotsBaromVisibWave heightAir tempDewpointWater temp
2017-Dec-14 00:30N 37°52' W 122°30'0 0.6
2017-Dec-14 00:00N 37°52' W 122°29'2 4.8
2017-Dec-13 23:30N 37°51' W 122°26'2 4.3
2017-Dec-13 23:00N 37°49' W 122°27'  
2017-Dec-10 04:16N 37°52' W 122°30'0 0.0
2017-Dec-10 04:01N 37°52' W 122°30'1 2.3
2017-Dec-10 03:31N 37°51' W 122°28'0 0.7
2017-Dec-10 03:01N 37°51' W 122°29'1 1.8
2017-Dec-10 02:31N 37°52' W 122°29'1 1.5
2017-Dec-10 02:01N 37°52' W 122°30'0 0.5
2017-Dec-10 01:31N 37°52' W 122°30'0 0.0
2017-Dec-10 01:01N 37°52' W 122°30'0 0.0
2017-Dec-10 00:30N 37°52' W 122°30'  

Dump ship's entire track history